Time;durP1;ratioP1;P1;durP2;ratioP2;P2;SDS_P1;SDS_P2;PMS_P1;PMS_P2;Temp;Humidity;BMP_temperature;BMP_pressure;BME280_temperature;BME280_humidity;BME280_pressure;Samples;Min_cycle;Max_cycle;Signal;HPM_P1;HPM_P2
2023/09/09 00:02:13;;;;;;;13.82;11.55;;;;;;;;;;5013656;27;92449;-62
2023/09/09 00:04:40;;;;;;;11.25;10.10;;;;;;;;;;5015244;27;95212;-61
2023/09/09 00:07:11;;;;;;;11.95;10.45;;;;;;;;;;5022118;27;94572;-62
2023/09/09 00:09:38;;;;;;;10.68;9.68;;;;;;;;;;5012803;27;92375;-61
2023/09/09 00:12:05;;;;;;;10.80;9.73;;;;;;;;;;5025891;27;95677;-61
2023/09/09 00:14:33;;;;;;;12.68;11.40;;;;;;;;;;5013502;27;92989;-61
2023/09/09 00:17:00;;;;;;;12.98;10.35;;;;;;;;;;5020765;27;93079;-61
2023/09/09 00:19:27;;;;;;;16.52;13.68;;;;;;;;;;5013488;27;93478;-62
2023/09/09 00:21:55;;;;;;;15.90;14.50;;;;;;;;;;5014212;27;91749;-61
2023/09/09 00:24:21;;;;;;;13.48;12.05;;;;;;;;;;5013825;27;92704;-61
2023/09/09 00:26:47;;;;;;;14.65;11.63;;;;;;;;;;5017206;27;94624;-62
2023/09/09 00:29:14;;;;;;;10.68;9.65;;;;;;;;;;5010789;27;95176;-61
2023/09/09 00:31:40;;;;;;;12.70;9.00;;;;;;;;;;5013725;27;95556;-61
2023/09/09 00:34:06;;;;;;;13.77;12.32;;;;;;;;;;5017167;27;94079;-61
2023/09/09 00:36:33;;;;;;;9.98;9.00;;;;;;;;;;5012702;27;93189;-62
2023/09/09 00:39:02;;;;;;;11.25;10.30;;;;;;;;;;5013500;27;94728;-61
2023/09/09 00:41:28;;;;;;;13.68;12.23;;;;;;;;;;5015934;27;92425;-61
2023/09/09 00:43:55;;;;;;;17.55;12.70;;;;;;;;;;5024669;27;94287;-61
2023/09/09 00:46:21;;;;;;;14.68;13.30;;;;;;;;;;5019910;27;94743;-62
2023/09/09 00:48:48;;;;;;;12.98;11.35;;;;;;;;;;5013178;27;92631;-62
2023/09/09 00:51:14;;;;;;;14.63;11.18;;;;;;;;;;5012292;27;93134;-62
2023/09/09 00:53:40;;;;;;;10.93;9.85;;;;;;;;;;5010571;27;96960;-62
2023/09/09 00:56:08;;;;;;;13.70;10.05;;;;;;;;;;5016367;27;92466;-61
2023/09/09 00:58:35;;;;;;;16.05;9.23;;;;;;;;;;5012331;27;94378;-61
2023/09/09 01:01:03;;;;;;;16.83;11.15;;;;;;;;;;5012841;27;92393;-61
2023/09/09 01:03:30;;;;;;;14.52;11.70;;;;;;;;;;5012531;27;93172;-62
2023/09/09 01:05:57;;;;;;;12.75;10.35;;;;;;;;;;5012543;27;93327;-62
2023/09/09 01:08:25;;;;;;;17.90;12.07;;;;;;;;;;5012432;27;92459;-62
2023/09/09 01:10:52;;;;;;;13.18;12.02;;;;;;;;;;5012822;27;93112;-61
2023/09/09 01:13:19;;;;;;;16.05;14.45;;;;;;;;;;5016470;27;93587;-62
2023/09/09 01:15:45;;;;;;;16.67;14.43;;;;;;;;;;5017947;27;92746;-62
2023/09/09 01:18:12;;;;;;;15.80;14.23;;;;;;;;;;5015104;27;95599;-62
2023/09/09 01:20:43;;;;;;;11.23;10.13;;;;;;;;;;5013774;27;92610;-62
2023/09/09 01:23:09;;;;;;;12.15;10.77;;;;;;;;;;5015070;27;93214;-61
2023/09/09 01:25:35;;;;;;;13.07;10.75;;;;;;;;;;5016243;27;93205;-62
2023/09/09 01:28:02;;;;;;;12.98;9.82;;;;;;;;;;5012002;27;92726;-62
2023/09/09 01:30:28;;;;;;;13.10;11.23;;;;;;;;;;5013064;27;93169;-62
2023/09/09 01:32:54;;;;;;;12.27;10.63;;;;;;;;;;5012533;27;93348;-62
2023/09/09 01:35:21;;;;;;;15.10;13.70;;;;;;;;;;5016367;27;91855;-62
2023/09/09 01:37:49;;;;;;;14.77;12.35;;;;;;;;;;5014508;27;92659;-62
2023/09/09 01:40:16;;;;;;;12.07;10.88;;;;;;;;;;5011664;27;92520;-62
2023/09/09 01:42:43;;;;;;;12.20;10.98;;;;;;;;;;5014157;27;95247;-62
2023/09/09 01:45:09;;;;;;;15.48;13.85;;;;;;;;;;5011454;27;93514;-62
2023/09/09 01:47:35;;;;;;;11.98;10.60;;;;;;;;;;5016727;27;92553;-62
2023/09/09 01:50:02;;;;;;;16.70;15.15;;;;;;;;;;5015913;27;93019;-62
2023/09/09 01:52:29;;;;;;;14.40;13.02;;;;;;;;;;5015809;27;93711;-62
2023/09/09 01:54:55;;;;;;;22.83;20.63;;;;;;;;;;5016068;27;92498;-62
2023/09/09 01:57:26;;;;;;;15.60;13.93;;;;;;;;;;5012272;27;94323;-62
2023/09/09 01:59:53;;;;;;;20.00;14.23;;;;;;;;;;5017230;27;92746;-62
2023/09/09 02:02:19;;;;;;;17.73;12.70;;;;;;;;;;5015082;27;93543;-62
2023/09/09 02:04:46;;;;;;;15.00;13.60;;;;;;;;;;5014971;27;93562;-62
2023/09/09 02:07:12;;;;;;;16.13;14.32;;;;;;;;;;5013641;27;95222;-62
2023/09/09 02:09:38;;;;;;;15.05;13.55;;;;;;;;;;5014741;27;95600;-62
2023/09/09 02:12:05;;;;;;;15.35;12.45;;;;;;;;;;5014468;27;94097;-61
2023/09/09 02:14:31;;;;;;;15.40;11.23;;;;;;;;;;5015323;27;92326;-61
2023/09/09 02:16:58;;;;;;;19.63;17.77;;;;;;;;;;5016145;27;92783;-62
2023/09/09 02:19:24;;;;;;;12.98;11.63;;;;;;;;;;5018431;27;92558;-62
2023/09/09 02:21:51;;;;;;;16.42;14.90;;;;;;;;;;5033684;27;93679;-62
2023/09/09 02:24:17;;;;;;;17.00;13.68;;;;;;;;;;5015967;27;93654;-62
2023/09/09 02:26:43;;;;;;;18.25;15.55;;;;;;;;;;5018664;27;92510;-62
2023/09/09 02:29:10;;;;;;;18.70;14.93;;;;;;;;;;5014735;27;94200;-61
2023/09/09 02:31:36;;;;;;;17.75;15.85;;;;;;;;;;5012784;27;97705;-61
2023/09/09 02:34:02;;;;;;;22.33;17.98;;;;;;;;;;5019135;27;92485;-62
2023/09/09 02:36:29;;;;;;;23.15;18.98;;;;;;;;;;5018722;27;94201;-62
2023/09/09 02:38:55;;;;;;;21.33;15.27;;;;;;;;;;5022076;27;93462;-62
2023/09/09 02:41:22;;;;;;;24.30;19.35;;;;;;;;;;5019053;27;95243;-62
2023/09/09 02:43:48;;;;;;;34.05;25.20;;;;;;;;;;5017589;27;92534;-62
2023/09/09 02:46:14;;;;;;;24.27;20.85;;;;;;;;;;5015305;27;92756;-62
2023/09/09 02:48:41;;;;;;;37.95;24.65;;;;;;;;;;5014527;27;93233;-61
2023/09/09 02:51:07;;;;;;;34.55;30.50;;;;;;;;;;5013698;27;93398;-61
2023/09/09 02:53:34;;;;;;;23.50;18.45;;;;;;;;;;5014785;27;92484;-61
2023/09/09 02:56:01;;;;;;;18.33;16.33;;;;;;;;;;5012784;27;94835;-62
2023/09/09 02:58:27;;;;;;;20.50;18.58;;;;;;;;;;5013874;27;93325;-61
2023/09/09 03:01:02;;;;;;;20.30;18.13;;;;;;;;;;5014251;27;93269;-61
2023/09/09 03:03:28;;;;;;;23.70;20.65;;;;;;;;;;5018215;27;92351;-62
2023/09/09 03:05:55;;;;;;;24.58;19.17;;;;;;;;;;5014179;27;92567;-62
2023/09/09 03:08:21;;;;;;;30.80;22.92;;;;;;;;;;5013828;27;93236;-61
2023/09/09 03:10:47;;;;;;;29.60;25.77;;;;;;;;;;5013003;27;93304;-61
2023/09/09 03:13:14;;;;;;;29.92;23.25;;;;;;;;;;5015506;27;91677;-62
2023/09/09 03:15:40;;;;;;;28.33;23.73;;;;;;;;;;5014015;27;92448;-62
2023/09/09 03:18:06;;;;;;;23.05;20.10;;;;;;;;;;5015016;27;93395;-61
2023/09/09 03:20:33;;;;;;;26.80;24.05;;;;;;;;;;5012200;27;94883;-61
2023/09/09 03:22:59;;;;;;;27.60;24.30;;;;;;;;;;5016305;27;96183;-62
2023/09/09 03:25:26;;;;;;;27.30;23.00;;;;;;;;;;5016745;27;93402;-61
2023/09/09 03:27:52;;;;;;;24.75;22.08;;;;;;;;;;5017701;27;93202;-62
2023/09/09 03:30:20;;;;;;;27.98;23.77;;;;;;;;;;5013621;27;94450;-62
2023/09/09 03:32:46;;;;;;;34.83;25.63;;;;;;;;;;5014042;27;92643;-62
2023/09/09 03:35:12;;;;;;;28.20;23.67;;;;;;;;;;5013443;27;93111;-62
2023/09/09 03:37:39;;;;;;;26.58;22.48;;;;;;;;;;5013428;27;92961;-62
2023/09/09 03:40:06;;;;;;;26.98;22.10;;;;;;;;;;5018273;27;92793;-62
2023/09/09 03:42:33;;;;;;;25.92;20.27;;;;;;;;;;5018499;27;93255;-61
2023/09/09 03:45:01;;;;;;;34.13;23.98;;;;;;;;;;5013691;27;96219;-61
2023/09/09 03:47:28;;;;;;;29.42;26.38;;;;;;;;;;5017989;27;92549;-61
2023/09/09 03:49:54;;;;;;;29.00;25.85;;;;;;;;;;5021627;27;93788;-61
2023/09/09 03:52:21;;;;;;;28.77;25.77;;;;;;;;;;5017584;27;95173;-62
2023/09/09 03:54:47;;;;;;;35.63;25.52;;;;;;;;;;5013628;27;93563;-62
2023/09/09 03:57:13;;;;;;;35.28;28.52;;;;;;;;;;5014399;27;93354;-61
2023/09/09 03:59:40;;;;;;;33.55;28.05;;;;;;;;;;5014649;27;93807;-61
2023/09/09 04:02:06;;;;;;;33.83;29.63;;;;;;;;;;5018433;27;93193;-62
2023/09/09 04:04:32;;;;;;;35.45;30.42;;;;;;;;;;5013784;27;93462;-62
2023/09/09 04:06:59;;;;;;;38.25;34.15;;;;;;;;;;5017467;27;92566;-61
2023/09/09 04:09:26;;;;;;;44.47;37.70;;;;;;;;;;5014346;27;94931;-62
2023/09/09 04:11:53;;;;;;;40.80;36.38;;;;;;;;;;5013173;27;92998;-61
2023/09/09 04:14:19;;;;;;;40.08;35.13;;;;;;;;;;5012989;27;92447;-61
2023/09/09 04:16:46;;;;;;;37.22;31.23;;;;;;;;;;5013951;27;93569;-62
2023/09/09 04:19:12;;;;;;;37.95;31.95;;;;;;;;;;5013399;27;92800;-62
2023/09/09 04:21:39;;;;;;;39.13;30.58;;;;;;;;;;5012214;27;93432;-62
2023/09/09 04:24:05;;;;;;;27.20;24.50;;;;;;;;;;5015411;27;93393;-61
2023/09/09 04:26:32;;;;;;;30.83;27.02;;;;;;;;;;5013201;27;93134;-62
2023/09/09 04:29:00;;;;;;;35.42;31.52;;;;;;;;;;5013123;27;92866;-61
2023/09/09 04:31:26;;;;;;;35.25;31.48;;;;;;;;;;5016165;27;93159;-61
2023/09/09 04:33:52;;;;;;;38.30;30.25;;;;;;;;;;5015213;27;94896;-61
2023/09/09 04:36:19;;;;;;;41.97;37.08;;;;;;;;;;5012969;27;93456;-61
2023/09/09 04:38:45;;;;;;;40.78;35.92;;;;;;;;;;5013154;27;92505;-61
2023/09/09 04:41:12;;;;;;;39.05;33.58;;;;;;;;;;5012246;27;93334;-61
2023/09/09 04:43:38;;;;;;;41.00;36.50;;;;;;;;;;5011980;27;93317;-61
2023/09/09 04:46:05;;;;;;;37.95;33.50;;;;;;;;;;5018652;27;92449;-62
2023/09/09 04:48:32;;;;;;;35.53;31.38;;;;;;;;;;5013222;27;93144;-61
2023/09/09 04:50:59;;;;;;;42.42;37.88;;;;;;;;;;5012348;27;92629;-61
2023/09/09 04:53:27;;;;;;;34.75;30.30;;;;;;;;;;5016008;27;92540;-61
2023/09/09 04:55:53;;;;;;;35.65;29.40;;;;;;;;;;5012098;27;94444;-61
2023/09/09 04:58:20;;;;;;;47.80;42.83;;;;;;;;;;5015405;27;94793;-61
2023/09/09 05:00:46;;;;;;;43.15;38.50;;;;;;;;;;5011872;27;95252;-61
2023/09/09 05:03:13;;;;;;;53.45;47.88;;;;;;;;;;5011775;27;93852;-61
2023/09/09 05:05:39;;;;;;;45.67;39.72;;;;;;;;;;5012109;27;92465;-60
2023/09/09 05:08:05;;;;;;;46.25;39.15;;;;;;;;;;5012348;27;93208;-61
2023/09/09 05:10:33;;;;;;;48.55;42.28;;;;;;;;;;5016791;27;94551;-61
2023/09/09 05:13:00;;;;;;;61.03;54.88;;;;;;;;;;5014695;27;95186;-61
2023/09/09 05:15:26;;;;;;;52.38;46.80;;;;;;;;;;5012083;27;91660;-61
2023/09/09 05:17:52;;;;;;;45.20;40.25;;;;;;;;;;5014152;27;92531;-61
2023/09/09 05:20:19;;;;;;;49.40;44.15;;;;;;;;;;5011694;27;94290;-61
2023/09/09 05:22:45;;;;;;;46.88;41.72;;;;;;;;;;5012776;27;97347;-61
2023/09/09 05:25:12;;;;;;;50.25;41.08;;;;;;;;;;5012484;27;92486;-61
2023/09/09 05:27:38;;;;;;;59.03;48.53;;;;;;;;;;5012635;27;94246;-61
2023/09/09 05:30:05;;;;;;;66.38;51.05;;;;;;;;;;5011605;27;92617;-61
2023/09/09 05:32:32;;;;;;;58.00;50.30;;;;;;;;;;5012029;27;92603;-61
2023/09/09 05:34:58;;;;;;;58.05;46.67;;;;;;;;;;5015068;27;94271;-61
2023/09/09 05:37:26;;;;;;;57.50;48.60;;;;;;;;;;5011306;27;92457;-61
2023/09/09 05:39:53;;;;;;;49.80;41.45;;;;;;;;;;5012524;27;92090;-61
2023/09/09 05:42:19;;;;;;;50.22;43.42;;;;;;;;;;5011682;27;94420;-61
2023/09/09 05:44:45;;;;;;;51.13;42.65;;;;;;;;;;5010529;27;92501;-61
2023/09/09 05:47:11;;;;;;;67.88;54.55;;;;;;;;;;5016426;27;94831;-61
2023/09/09 05:49:38;;;;;;;100.10;74.80;;;;;;;;;;5011948;27;93435;-61
2023/09/09 05:52:06;;;;;;;94.00;73.28;;;;;;;;;;5011492;27;92578;-61
2023/09/09 05:54:33;;;;;;;86.97;68.53;;;;;;;;;;5011116;27;94495;-61
2023/09/09 05:57:00;;;;;;;92.90;70.00;;;;;;;;;;5014634;27;93492;-62
2023/09/09 05:59:26;;;;;;;115.10;84.60;;;;;;;;;;5011287;27;94281;-61
2023/09/09 06:01:53;;;;;;;102.93;73.65;;;;;;;;;;5013163;27;93686;-61
2023/09/09 06:04:19;;;;;;;148.05;101.75;;;;;;;;;;5014313;27;91824;-61
2023/09/09 06:06:45;;;;;;;173.05;106.00;;;;;;;;;;5010940;27;92668;-61
2023/09/09 06:09:12;;;;;;;179.57;116.82;;;;;;;;;;5013945;27;93420;-61
2023/09/09 06:11:38;;;;;;;191.95;118.43;;;;;;;;;;5010013;27;95205;-61
2023/09/09 06:14:05;;;;;;;154.40;114.47;;;;;;;;;;5010595;27;95676;-60
2023/09/09 06:16:32;;;;;;;150.23;109.95;;;;;;;;;;5012885;27;93401;-61
2023/09/09 06:18:58;;;;;;;151.85;103.53;;;;;;;;;;5012752;27;92456;-61
2023/09/09 06:21:25;;;;;;;178.52;124.00;;;;;;;;;;5009942;27;94476;-61
2023/09/09 06:23:52;;;;;;;180.35;117.00;;;;;;;;;;5013398;27;92957;-61
2023/09/09 06:26:18;;;;;;;175.90;112.88;;;;;;;;;;5009912;27;93337;-61
2023/09/09 06:28:45;;;;;;;320.08;132.30;;;;;;;;;;5011550;27;93723;-62
2023/09/09 06:31:11;;;;;;;251.05;133.00;;;;;;;;;;5014878;27;93713;-61
2023/09/09 06:33:38;;;;;;;174.07;122.60;;;;;;;;;;5010199;27;93185;-61
2023/09/09 06:36:09;;;;;;;148.48;107.80;;;;;;;;;;5008423;27;95796;-61
2023/09/09 06:38:35;;;;;;;173.27;109.30;;;;;;;;;;5010680;27;92872;-61
2023/09/09 06:41:02;;;;;;;191.50;126.95;;;;;;;;;;5017519;27;93179;-62
2023/09/09 06:43:28;;;;;;;159.23;105.80;;;;;;;;;;5013834;27;92445;-61
2023/09/09 06:45:55;;;;;;;276.50;111.47;;;;;;;;;;5011095;27;93159;-60
2023/09/09 06:48:21;;;;;;;150.13;98.07;;;;;;;;;;5016332;27;93491;-61
2023/09/09 06:50:47;;;;;;;127.93;87.80;;;;;;;;;;5018869;27;92433;-61
2023/09/09 06:53:14;;;;;;;151.88;104.28;;;;;;;;;;5014807;27;93362;-61
2023/09/09 06:55:43;;;;;;;154.82;106.40;;;;;;;;;;5013094;27;96886;-60
2023/09/09 06:58:09;;;;;;;132.98;94.20;;;;;;;;;;5013476;27;93303;-61
2023/09/09 07:00:36;;;;;;;135.45;88.40;;;;;;;;;;5011823;27;94985;-61
2023/09/09 07:03:03;;;;;;;133.98;91.53;;;;;;;;;;5017191;27;93356;-61
2023/09/09 07:05:32;;;;;;;140.63;89.22;;;;;;;;;;5013980;27;92549;-60
2023/09/09 07:07:59;;;;;;;122.57;80.37;;;;;;;;;;5013898;27;93894;-61
2023/09/09 07:10:25;;;;;;;127.15;84.60;;;;;;;;;;5013738;27;92969;-61
2023/09/09 07:12:52;;;;;;;120.07;79.30;;;;;;;;;;5012859;27;93159;-61
2023/09/09 07:15:19;;;;;;;112.80;75.90;;;;;;;;;;5021919;27;93514;-61
2023/09/09 07:17:48;;;;;;;105.75;73.68;;;;;;;;;;5017380;27;91657;-62
2023/09/09 07:20:15;;;;;;;112.75;73.97;;;;;;;;;;5014224;27;92410;-61
2023/09/09 07:22:42;;;;;;;116.03;76.95;;;;;;;;;;5025247;27;95935;-61
2023/09/09 07:25:08;;;;;;;118.30;75.38;;;;;;;;;;5012418;27;95973;-61
2023/09/09 07:27:35;;;;;;;107.90;70.25;;;;;;;;;;5013678;27;93577;-61
2023/09/09 07:30:01;;;;;;;105.15;70.15;;;;;;;;;;5013285;27;92565;-61
2023/09/09 07:32:28;;;;;;;105.88;70.20;;;;;;;;;;5014027;27;93197;-61
2023/09/09 07:34:54;;;;;;;103.47;70.22;;;;;;;;;;5013973;27;94459;-61
2023/09/09 07:37:21;;;;;;;118.10;76.82;;;;;;;;;;5013097;27;92555;-61
2023/09/09 07:39:50;;;;;;;122.55;79.78;;;;;;;;;;5013162;27;93590;-62
2023/09/09 07:42:17;;;;;;;113.07;75.22;;;;;;;;;;5017772;27;93223;-61
2023/09/09 07:44:44;;;;;;;108.13;72.07;;;;;;;;;;5020681;27;92794;-62
2023/09/09 07:47:11;;;;;;;108.85;71.63;;;;;;;;;;5017010;27;93769;-61
2023/09/09 07:49:37;;;;;;;110.97;74.93;;;;;;;;;;5015410;27;95263;-62
2023/09/09 07:52:04;;;;;;;114.78;72.75;;;;;;;;;;5012534;27;95586;-62
2023/09/09 07:54:31;;;;;;;110.03;74.22;;;;;;;;;;5011994;27;93416;-62
2023/09/09 07:57:01;;;;;;;107.72;72.13;;;;;;;;;;5021687;27;92546;-61
2023/09/09 07:59:28;;;;;;;101.45;71.40;;;;;;;;;;5015204;27;93212;-61
2023/09/09 08:01:55;;;;;;;106.30;73.00;;;;;;;;;;5027115;27;93459;-62
2023/09/09 08:04:21;;;;;;;100.00;67.25;;;;;;;;;;5024843;27;92435;-61
2023/09/09 08:06:49;;;;;;;93.45;67.93;;;;;;;;;;5016931;27;94371;-61
2023/09/09 08:09:15;;;;;;;100.78;71.05;;;;;;;;;;5013405;27;92411;-61
2023/09/09 08:11:42;;;;;;;103.72;69.25;;;;;;;;;;5012889;27;94009;-61
2023/09/09 08:14:08;;;;;;;102.05;70.97;;;;;;;;;;5015445;27;96809;-62
2023/09/09 08:16:34;;;;;;;90.95;64.75;;;;;;;;;;5015721;27;92436;-61
2023/09/09 08:19:01;;;;;;;94.00;64.60;;;;;;;;;;5013215;27;94245;-61
2023/09/09 08:21:27;;;;;;;81.32;56.45;;;;;;;;;;5017105;27;93394;-62
2023/09/09 08:23:56;;;;;;;86.53;59.97;;;;;;;;;;5012609;27;92750;-61
2023/09/09 08:26:24;;;;;;;80.30;57.53;;;;;;;;;;5016980;27;93267;-61
2023/09/09 08:28:50;;;;;;;75.82;54.72;;;;;;;;;;5019527;27;93481;-61
2023/09/09 08:31:17;;;;;;;76.70;54.08;;;;;;;;;;5013756;27;93159;-62
2023/09/09 08:33:43;;;;;;;77.50;53.83;;;;;;;;;;5012954;27;92308;-62
2023/09/09 08:36:09;;;;;;;68.75;47.42;;;;;;;;;;5016684;27;92481;-62
2023/09/09 08:38:36;;;;;;;73.13;50.67;;;;;;;;;;5010192;27;94979;-63
2023/09/09 08:41:20;;;;;;;60.70;46.63;;;;;;;;;;5012672;27;93155;-62
2023/09/09 08:43:50;;;;;;;77.85;49.22;;;;;;;;;;5017154;27;92504;-62
2023/09/09 08:46:17;;;;;;;64.32;47.95;;;;;;;;;;5029326;27;93282;-62
2023/09/09 08:48:44;;;;;;;59.70;45.47;;;;;;;;;;5024516;27;93393;-62
2023/09/09 08:51:14;;;;;;;58.28;41.67;;;;;;;;;;5020661;27;92605;-62
2023/09/09 08:53:41;;;;;;;53.78;41.83;;;;;;;;;;5016433;27;92576;-62
2023/09/09 08:56:08;;;;;;;59.55;43.60;;;;;;;;;;5013510;27;91959;-62
2023/09/09 08:58:35;;;;;;;55.63;40.92;;;;;;;;;;5012602;27;92878;-61
2023/09/09 09:01:02;;;;;;;56.45;41.50;;;;;;;;;;5011653;27;92386;-62
2023/09/09 09:03:29;;;;;;;52.17;39.28;;;;;;;;;;5010625;27;95201;-62
2023/09/09 09:05:56;;;;;;;58.38;40.97;;;;;;;;;;5012335;27;95740;-61
2023/09/09 09:08:23;;;;;;;52.13;37.95;;;;;;;;;;5014523;27;93457;-61
2023/09/09 09:10:49;;;;;;;38.22;29.45;;;;;;;;;;5012523;27;92447;-61
2023/09/09 09:13:15;;;;;;;37.45;29.52;;;;;;;;;;5014760;27;93150;-61
2023/09/09 09:15:42;;;;;;;40.40;31.85;;;;;;;;;;5011251;27;92616;-61
2023/09/09 09:18:09;;;;;;;43.10;29.02;;;;;;;;;;5029606;27;94251;-61
2023/09/09 09:20:36;;;;;;;36.65;27.88;;;;;;;;;;5014081;27;92952;-61
2023/09/09 09:23:09;;;;;;;39.42;27.98;;;;;;;;;;5012537;27;92563;-61
2023/09/09 09:25:37;;;;;;;36.83;26.75;;;;;;;;;;5011558;27;92366;-62
2023/09/09 09:28:03;;;;;;;35.92;27.35;;;;;;;;;;5012656;27;95820;-61
2023/09/09 09:30:31;;;;;;;26.95;21.23;;;;;;;;;;5016166;27;92554;-61
2023/09/09 09:32:57;;;;;;;35.70;26.77;;;;;;;;;;5019297;27;94422;-61
2023/09/09 09:35:28;;;;;;;33.70;25.23;;;;;;;;;;5012257;27;92480;-61
2023/09/09 09:37:57;;;;;;;38.13;22.83;;;;;;;;;;5011671;27;95445;-60
2023/09/09 09:40:24;;;;;;;33.73;22.03;;;;;;;;;;5011551;27;93372;-60
2023/09/09 09:42:51;;;;;;;30.60;23.50;;;;;;;;;;5012473;27;92374;-61
2023/09/09 09:45:17;;;;;;;34.70;22.85;;;;;;;;;;5012298;27;93244;-61
2023/09/09 09:47:46;;;;;;;35.95;26.25;;;;;;;;;;5015088;27;93423;-61
2023/09/09 09:50:22;;;;;;;28.67;22.10;;;;;;;;;;5011257;27;92559;-60
2023/09/09 09:52:56;;;;;;;29.50;21.73;;;;;;;;;;5010087;27;94753;-61
2023/09/09 09:55:23;;;;;;;28.17;21.35;;;;;;;;;;5014988;27;94362;-60
2023/09/09 09:57:50;;;;;;;32.83;22.50;;;;;;;;;;5014342;27;93932;-61
2023/09/09 10:00:19;;;;;;;29.40;20.57;;;;;;;;;;5011775;27;94541;-61
2023/09/09 10:02:46;;;;;;;27.25;22.33;;;;;;;;;;5011409;27;92386;-61
2023/09/09 10:05:13;;;;;;;30.25;22.55;;;;;;;;;;5011959;27;94167;-61
2023/09/09 10:07:45;;;;;;;31.75;21.35;;;;;;;;;;5011132;27;93415;-61
2023/09/09 10:10:14;;;;;;;30.52;20.45;;;;;;;;;;5016041;27;93770;-61
2023/09/09 10:12:43;;;;;;;25.83;18.97;;;;;;;;;;5011246;27;92853;-61
2023/09/09 10:15:18;;;;;;;26.50;17.90;;;;;;;;;;5010995;27;92446;-61
2023/09/09 10:17:45;;;;;;;20.35;17.13;;;;;;;;;;5016107;27;94972;-61
2023/09/09 10:20:13;;;;;;;17.20;13.95;;;;;;;;;;5012549;27;93424;-61
2023/09/09 10:22:40;;;;;;;28.65;17.08;;;;;;;;;;5015098;27;92456;-61
2023/09/09 10:25:10;;;;;;;20.38;14.20;;;;;;;;;;5014447;28;95201;-61
2023/09/09 10:27:37;;;;;;;21.50;15.30;;;;;;;;;;5018846;27;92465;-61
2023/09/09 10:30:03;;;;;;;22.80;16.15;;;;;;;;;;5015033;27;92575;-61
2023/09/09 10:32:30;;;;;;;18.45;13.80;;;;;;;;;;5014634;27;93063;-62
2023/09/09 10:34:57;;;;;;;21.58;12.20;;;;;;;;;;5014985;27;91834;-61
2023/09/09 10:37:24;;;;;;;20.10;12.20;;;;;;;;;;5015124;27;92393;-61
2023/09/09 10:39:50;;;;;;;15.20;10.98;;;;;;;;;;5017735;27;93310;-61
2023/09/09 10:42:17;;;;;;;13.45;10.02;;;;;;;;;;5012442;27;94823;-61
2023/09/09 10:44:53;;;;;;;19.98;11.38;;;;;;;;;;5014267;27;95627;-61
2023/09/09 10:47:19;;;;;;;13.38;12.00;;;;;;;;;;5018899;27;94640;-61
2023/09/09 10:49:45;;;;;;;17.38;10.90;;;;;;;;;;5014497;27;92423;-61
2023/09/09 10:52:32;;;;;;;19.05;11.43;;;;;;;;;;5013925;27;92389;-61
2023/09/09 10:55:11;;;;;;;13.20;9.13;;;;;;;;;;5023147;27;93437;-62
2023/09/09 10:57:38;;;;;;;13.05;8.35;;;;;;;;;;5014712;27;93536;-61
2023/09/09 11:00:10;;;;;;;13.90;8.15;;;;;;;;;;5016160;27;93797;-61
2023/09/09 11:02:46;;;;;;;12.25;8.10;;;;;;;;;;5018035;27;93753;-61
2023/09/09 11:05:14;;;;;;;14.07;8.70;;;;;;;;;;5014997;27;93311;-61
2023/09/09 11:07:44;;;;;;;16.40;8.57;;;;;;;;;;5013262;27;96866;-61
2023/09/09 11:10:17;;;;;;;8.77;7.03;;;;;;;;;;5014885;27;92400;-61
2023/09/09 11:12:52;;;;;;;12.98;6.68;;;;;;;;;;5014914;27;92588;-62
2023/09/09 11:15:19;;;;;;;14.43;7.15;;;;;;;;;;5014359;27;93338;-61
2023/09/09 11:17:45;;;;;;;8.93;5.63;;;;;;;;;;5015968;27;92381;-61
2023/09/09 11:20:12;;;;;;;9.00;5.47;;;;;;;;;;5019273;27;93040;-61
2023/09/09 11:22:40;;;;;;;7.63;5.57;;;;;;;;;;5020451;27;94568;-61
2023/09/09 11:25:07;;;;;;;8.77;5.60;;;;;;;;;;5018427;27;91648;-61
2023/09/09 11:27:33;;;;;;;13.35;6.47;;;;;;;;;;5018342;27;93728;-61
2023/09/09 11:30:00;;;;;;;13.18;6.50;;;;;;;;;;5014673;27;92364;-61
2023/09/09 11:32:27;;;;;;;11.73;6.00;;;;;;;;;;5013280;27;94990;-61
2023/09/09 11:34:55;;;;;;;12.57;6.93;;;;;;;;;;5014269;27;93392;-61
2023/09/09 11:37:25;;;;;;;21.08;8.70;;;;;;;;;;5018685;27;92596;-61
2023/09/09 11:39:55;;;;;;;18.17;7.38;;;;;;;;;;5013852;27;92500;-61
2023/09/09 11:42:21;;;;;;;12.02;6.13;;;;;;;;;;5020125;27;93414;-60
2023/09/09 11:44:48;;;;;;;10.40;6.97;;;;;;;;;;5019277;27;92619;-61
2023/09/09 11:47:15;;;;;;;10.43;6.03;;;;;;;;;;5018494;27;93258;-61
2023/09/09 11:49:42;;;;;;;19.02;5.10;;;;;;;;;;5019366;27;92000;-61
2023/09/09 11:52:09;;;;;;;17.00;6.15;;;;;;;;;;5014477;27;92634;-61
2023/09/09 11:54:35;;;;;;;9.18;5.78;;;;;;;;;;5018036;27;94430;-61
2023/09/09 11:57:06;;;;;;;21.88;11.05;;;;;;;;;;5021066;27;95077;-61
2023/09/09 11:59:42;;;;;;;6.63;5.85;;;;;;;;;;5017075;27;96777;-61
2023/09/09 12:02:16;;;;;;;16.45;6.57;;;;;;;;;;5022682;27;93398;-60
2023/09/09 12:04:55;;;;;;;18.40;6.47;;;;;;;;;;5013803;27;92610;-61
2023/09/09 12:07:23;;;;;;;7.63;5.15;;;;;;;;;;5016815;27;94321;-61
2023/09/09 12:09:49;;;;;;;6.93;5.13;;;;;;;;;;5018098;27;92446;-60
2023/09/09 12:12:17;;;;;;;10.10;9.00;;;;;;;;;;5013884;27;93066;-61
2023/09/09 12:14:43;;;;;;;122.35;111.07;;;;;;;;;;5014572;27;92708;-59
2023/09/09 12:17:10;;;;;;;27.27;23.58;;;;;;;;;;5013534;27;92625;-58
2023/09/09 12:19:36;;;;;;;166.98;152.13;;;;;;;;;;5011580;27;93202;-59
2023/09/09 12:22:03;;;;;;;180.63;163.75;;;;;;;;;;5022038;27;96795;-58
2023/09/09 12:24:38;;;;;;;136.18;124.05;;;;;;;;;;5025193;27;92453;-59
2023/09/09 12:27:05;;;;;;;141.43;128.68;;;;;;;;;;5012198;27;93123;-59
2023/09/09 12:29:31;;;;;;;146.73;132.35;;;;;;;;;;5015411;27;93417;-59
2023/09/09 12:31:58;;;;;;;143.48;129.85;;;;;;;;;;5011668;27;93279;-59
2023/09/09 12:34:25;;;;;;;162.02;147.48;;;;;;;;;;5016805;27;94576;-60
2023/09/09 12:36:56;;;;;;;160.30;145.45;;;;;;;;;;5014446;27;92777;-59
2023/09/09 12:39:25;;;;;;;216.38;196.95;;;;;;;;;;5012976;27;93381;-60
2023/09/09 12:41:58;;;;;;;211.02;193.00;;;;;;;;;;5011826;27;93522;-60
2023/09/09 12:44:25;;;;;;;241.57;218.52;;;;;;;;;;5021374;27;95813;-59
2023/09/09 12:46:52;;;;;;;240.00;218.55;;;;;;;;;;5012216;27;95650;-59
2023/09/09 12:49:19;;;;;;;231.57;211.03;;;;;;;;;;5013629;27;95151;-60
2023/09/09 12:51:45;;;;;;;316.50;288.17;;;;;;;;;;5014368;27;94331;-60
2023/09/09 12:54:12;;;;;;;283.65;260.67;;;;;;;;;;5010716;27;94604;-60
2023/09/09 12:56:38;;;;;;;301.48;276.38;;;;;;;;;;5010638;27;94577;-60
2023/09/09 12:59:06;;;;;;;359.70;331.08;;;;;;;;;;5009985;27;94596;-60
2023/09/09 13:01:32;;;;;;;313.42;288.38;;;;;;;;;;5010211;27;94994;-60
2023/09/09 13:03:59;;;;;;;347.65;317.27;;;;;;;;;;5010513;27;94088;-60
2023/09/09 13:06:26;;;;;;;337.90;308.70;;;;;;;;;;5013139;27;94720;-60
2023/09/09 13:08:52;;;;;;;397.05;364.08;;;;;;;;;;5009480;27;96731;-60
2023/09/09 13:11:18;;;;;;;418.30;382.02;;;;;;;;;;5011368;27;97386;-60
2023/09/09 13:13:45;;;;;;;359.00;328.65;;;;;;;;;;5011392;27;98018;-60
2023/09/09 13:16:12;;;;;;;381.80;347.98;;;;;;;;;;5012680;27;95066;-60
2023/09/09 13:18:38;;;;;;;432.70;396.48;;;;;;;;;;5009098;27;95558;-60
2023/09/09 13:21:05;;;;;;;437.02;402.15;;;;;;;;;;5009292;27;96922;-60
2023/09/09 13:23:31;;;;;;;442.23;405.05;;;;;;;;;;5011276;27;95816;-60
2023/09/09 13:25:57;;;;;;;420.95;386.27;;;;;;;;;;5008783;27;95842;-60
2023/09/09 13:28:24;;;;;;;479.00;438.75;;;;;;;;;;5009308;27;96485;-60
2023/09/09 13:30:50;;;;;;;487.55;445.30;;;;;;;;;;5010392;27;94949;-60
2023/09/09 13:33:18;;;;;;;493.87;452.37;;;;;;;;;;5017805;27;95798;-60
2023/09/09 13:35:44;;;;;;;443.30;405.67;;;;;;;;;;5006850;27;97614;-60
2023/09/09 13:38:10;;;;;;;377.23;345.87;;;;;;;;;;5008348;27;98187;-60
2023/09/09 13:40:37;;;;;;;446.90;408.27;;;;;;;;;;5007935;27;95809;-61
2023/09/09 13:43:03;;;;;;;454.83;417.63;;;;;;;;;;5009202;27;94893;-60
2023/09/09 13:45:30;;;;;;;551.83;504.00;;;;;;;;;;5010895;27;95867;-60
2023/09/09 13:47:56;;;;;;;436.20;399.13;;;;;;;;;;5013495;27;95862;-61
2023/09/09 13:50:23;;;;;;;537.20;492.07;;;;;;;;;;5011634;27;94923;-60
2023/09/09 13:52:49;;;;;;;481.13;439.47;;;;;;;;;;5009266;27;96984;-60
2023/09/09 13:55:16;;;;;;;534.07;488.53;;;;;;;;;;5013236;27;96254;-60
2023/09/09 13:57:42;;;;;;;451.87;413.90;;;;;;;;;;5016060;27;96725;-60
2023/09/09 14:00:09;;;;;;;494.43;453.23;;;;;;;;;;5009841;27;98355;-60
2023/09/09 14:02:35;;;;;;;434.70;398.93;;;;;;;;;;5012183;27;95001;-60
2023/09/09 14:05:02;;;;;;;;;;;;;;;;;;5016406;27;95907;-60
2023/09/09 14:07:28;;;;;;;459.77;420.97;;;;;;;;;;5013847;27;126682;-60
2023/09/09 14:09:55;;;;;;;539.10;491.80;;;;;;;;;;5012221;27;95172;-60
2023/09/09 14:12:22;;;;;;;522.17;479.23;;;;;;;;;;5013764;27;96718;-60
2023/09/09 14:14:48;;;;;;;592.63;543.00;;;;;;;;;;5013543;27;96154;-60